Time;durP1;ratioP1;P1;durP2;ratioP2;P2;SDS_P1;SDS_P2;PMS_P1;PMS_P2;Temp;Humidity;BMP_temperature;BMP_pressure;BME280_temperature;BME280_humidity;BME280_pressure;Samples;Min_cycle;Max_cycle;Signal;HPM_P1;HPM_P2
2021/04/14 00:00:45;;;;;;;19.65;13.40;;;;;;;13.48;100.00;100816.16;5034521;28;20477;-74
2021/04/14 00:03:32;;;;;;;21.58;14.70;;;;;;;13.25;100.00;100818.53;5034929;28;20039;-75
2021/04/14 00:06:18;;;;;;;17.55;13.18;;;;;;;13.40;100.00;100815.50;5034429;28;20053;-75
2021/04/14 00:09:04;;;;;;;18.55;13.35;;;;;;;13.52;100.00;100815.16;5034796;28;20454;-74
2021/04/14 00:11:50;;;;;;;22.60;15.45;;;;;;;13.75;100.00;100811.88;5033591;28;20488;-74
2021/04/14 00:14:37;;;;;;;18.70;13.15;;;;;;;13.69;100.00;100814.69;5034319;28;20513;-74
2021/04/14 00:17:22;;;;;;;20.73;14.85;;;;;;;13.96;100.00;100811.25;5020267;28;20033;-74
2021/04/14 00:20:10;;;;;;;21.02;13.88;;;;;;;13.62;100.00;100814.00;5033119;28;20049;-75
2021/04/14 00:22:56;;;;;;;20.10;15.15;;;;;;;13.52;100.00;100809.91;5034200;28;20447;-75
2021/04/14 00:25:44;;;;;;;18.52;14.68;;;;;;;13.73;100.00;100819.81;5034428;28;20361;-75
2021/04/14 00:28:30;;;;;;;19.15;14.05;;;;;;;13.41;100.00;100808.44;5034120;28;20037;-75
2021/04/14 00:31:16;;;;;;;22.02;16.15;;;;;;;13.95;100.00;100812.16;5034429;28;20081;-75
2021/04/14 00:34:07;;;;;;;23.92;16.25;;;;;;;13.83;100.00;100805.47;5034234;28;20033;-74
2021/04/14 00:36:53;;;;;;;21.25;14.93;;;;;;;13.93;100.00;100799.03;5033916;28;20032;-74
2021/04/14 00:39:38;;;;;;;19.00;15.10;;;;;;;13.56;100.00;100800.13;5034230;28;20029;-75
2021/04/14 00:42:25;;;;;;;23.38;15.85;;;;;;;13.39;100.00;100800.59;5019974;28;20040;-73
2021/04/14 00:45:11;;;;;;;26.67;16.00;;;;;;;13.28;100.00;100805.31;5034056;28;20421;-74
2021/04/14 00:47:57;;;;;;;21.20;14.55;;;;;;;13.19;100.00;100796.81;5034041;28;20028;-74
2021/04/14 00:50:43;;;;;;;24.65;17.23;;;;;;;13.30;100.00;100805.28;5033645;28;20172;-74
2021/04/14 00:53:29;;;;;;;21.92;16.23;;;;;;;13.78;100.00;100801.22;5034168;28;20025;-74
2021/04/14 00:56:15;;;;;;;24.75;16.33;;;;;;;13.41;100.00;100796.16;5033678;28;20104;-75
2021/04/14 00:59:01;;;;;;;24.48;17.60;;;;;;;13.53;100.00;100793.19;5020289;28;20360;-74
2021/04/14 01:01:47;;;;;;;19.25;15.25;;;;;;;13.49;100.00;100794.19;5033322;28;20026;-75
2021/04/14 01:04:34;;;;;;;23.08;17.95;;;;;;;13.30;100.00;100792.13;5033461;28;20022;-74
2021/04/14 01:07:21;;;;;;;23.20;16.70;;;;;;;13.11;100.00;100789.09;5019192;28;20044;-74
2021/04/14 01:10:07;;;;;;;24.35;17.92;;;;;;;13.37;100.00;100799.78;5033734;28;20033;-74
2021/04/14 01:12:54;;;;;;;23.15;17.08;;;;;;;13.45;100.00;100792.53;5033575;28;20442;-73
2021/04/14 01:15:44;;;;;;;21.95;17.23;;;;;;;13.59;100.00;100782.47;5019706;28;20037;-75
2021/04/14 01:18:32;;;;;;;22.83;16.63;;;;;;;13.56;100.00;100773.81;5033954;28;20056;-74
2021/04/14 01:21:42;;;;;;;23.58;16.90;;;;;;;13.30;100.00;100779.81;5019164;28;20423;-74
2021/04/14 01:24:28;;;;;;;28.75;18.35;;;;;;;13.44;100.00;100771.53;5037917;28;20470;-74
2021/04/14 01:27:14;;;;;;;28.45;19.55;;;;;;;13.44;100.00;100767.13;5026645;28;20021;-75
2021/04/14 01:30:00;;;;;;;22.35;17.10;;;;;;;13.58;100.00;100766.72;5040682;28;20030;-75
2021/04/14 01:32:46;;;;;;;25.95;17.92;;;;;;;13.94;100.00;100765.63;5027174;28;20053;-74
2021/04/14 01:35:33;;;;;;;22.30;16.35;;;;;;;13.74;100.00;100762.72;5040948;28;20040;-74
2021/04/14 01:38:18;;;;;;;23.38;16.23;;;;;;;13.70;100.00;100761.09;5039710;28;20470;-74
2021/04/14 01:41:06;;;;;;;22.70;16.60;;;;;;;13.75;100.00;100760.06;5040191;28;20425;-73
2021/04/14 01:43:52;;;;;;;24.05;15.75;;;;;;;13.20;100.00;100759.94;5025147;28;20425;-75
2021/04/14 01:46:40;;;;;;;22.08;16.00;;;;;;;13.66;100.00;100757.72;5039951;28;20039;-75
2021/04/14 01:49:26;;;;;;;21.65;16.17;;;;;;;13.70;100.00;100751.44;5039906;28;20029;-75
2021/04/14 01:52:11;;;;;;;21.88;15.18;;;;;;;13.48;100.00;100747.72;5040038;28;20029;-73
2021/04/14 01:54:58;;;;;;;21.60;16.67;;;;;;;13.46;100.00;100738.13;5025771;28;20029;-75
2021/04/14 01:57:45;;;;;;;27.05;19.85;;;;;;;13.10;100.00;100745.28;5039956;28;20060;-75
2021/04/14 02:00:33;;;;;;;27.48;20.10;;;;;;;13.20;100.00;100751.16;5040169;28;20037;-75
2021/04/14 02:03:19;;;;;;;25.77;20.40;;;;;;;13.63;100.00;100747.25;5025409;28;20017;-74
2021/04/14 02:06:08;;;;;;;24.83;18.58;;;;;;;13.48;100.00;100733.69;5039841;28;20061;-75
2021/04/14 02:08:54;;;;;;;23.35;16.83;;;;;;;13.11;100.00;100739.09;5039721;28;20131;-75
2021/04/14 02:11:40;;;;;;;22.63;16.23;;;;;;;13.28;100.00;100736.91;5038870;28;20025;-75
2021/04/14 02:14:26;;;;;;;20.45;15.65;;;;;;;13.72;100.00;100736.47;5039053;28;20037;-75
2021/04/14 02:17:11;;;;;;;20.27;15.32;;;;;;;13.32;100.00;100728.00;5038808;28;20509;-75
2021/04/14 02:19:57;;;;;;;28.27;18.42;;;;;;;13.60;100.00;100725.44;5040035;28;20052;-75
2021/04/14 02:22:43;;;;;;;21.48;16.33;;;;;;;13.57;100.00;100728.16;5039600;28;20037;-75
2021/04/14 02:25:29;;;;;;;19.45;16.27;;;;;;;13.90;100.00;100724.50;5025622;28;20112;-76
2021/04/14 02:28:16;;;;;;;23.52;16.52;;;;;;;13.58;100.00;100716.69;5039288;28;20524;-75
2021/04/14 02:31:03;;;;;;;23.70;16.42;;;;;;;13.45;100.00;100720.59;5039318;28;20037;-75
2021/04/14 02:33:49;;;;;;;23.05;16.83;;;;;;;13.60;100.00;100720.16;5040204;28;20029;-75
2021/04/14 02:36:35;;;;;;;27.92;17.55;;;;;;;13.75;100.00;100717.09;5022712;28;20383;-75
2021/04/14 02:39:20;;;;;;;22.88;16.08;;;;;;;13.73;100.00;100717.13;5023381;28;20033;-75
2021/04/14 02:42:06;;;;;;;21.33;16.08;;;;;;;13.48;100.00;100713.50;5037051;28;20385;-75
2021/04/14 02:44:52;;;;;;;27.15;19.10;;;;;;;13.06;100.00;100722.59;5036214;28;20021;-75
2021/04/14 02:47:38;;;;;;;26.52;19.33;;;;;;;13.07;100.00;100724.31;5036951;28;20104;-75
2021/04/14 02:50:25;;;;;;;25.30;18.58;;;;;;;13.50;100.00;100721.34;5022138;28;20052;-75
2021/04/14 02:53:11;;;;;;;28.90;20.73;;;;;;;13.19;100.00;100720.50;5021779;28;20029;-75
2021/04/14 02:55:57;;;;;;;28.33;20.40;;;;;;;13.31;100.00;100715.75;5036392;28;20033;-75
2021/04/14 02:58:43;;;;;;;22.73;17.50;;;;;;;13.38;100.00;100709.41;5021461;28;20029;-75
2021/04/14 03:01:29;;;;;;;22.35;17.08;;;;;;;13.26;100.00;100708.91;5035977;28;20095;-75
2021/04/14 03:04:18;;;;;;;28.88;18.25;;;;;;;13.19;100.00;100716.09;5036136;28;20041;-75
2021/04/14 03:07:04;;;;;;;23.15;18.10;;;;;;;13.83;100.00;100715.94;5035715;28;20048;-75
2021/04/14 03:09:49;;;;;;;24.15;18.15;;;;;;;13.70;100.00;100717.22;5036159;28;20090;-75
2021/04/14 03:12:37;;;;;;;25.40;18.58;;;;;;;13.74;100.00;100717.97;5021851;28;20116;-74
2021/04/14 03:15:27;;;;;;;27.25;18.40;;;;;;;13.21;100.00;100716.03;5021498;28;20025;-75
2021/04/14 03:18:15;;;;;;;25.70;18.00;;;;;;;13.51;100.00;100709.91;5035614;28;20187;-74
2021/04/14 03:21:01;;;;;;;25.75;18.38;;;;;;;13.52;100.00;100714.28;5035495;28;20417;-74
2021/04/14 03:23:47;;;;;;;29.77;19.23;;;;;;;13.39;100.00;100716.38;5036404;28;20041;-75
2021/04/14 03:26:32;;;;;;;24.45;17.25;;;;;;;13.53;100.00;100716.84;5035387;28;20037;-74
2021/04/14 03:29:18;;;;;;;26.08;17.92;;;;;;;13.47;100.00;100714.38;5022218;28;20021;-75
2021/04/14 03:32:04;;;;;;;26.48;18.60;;;;;;;13.96;100.00;100714.66;5022336;28;20151;-75
2021/04/14 03:34:50;;;;;;;22.50;17.30;;;;;;;13.55;100.00;100711.56;5035617;28;20381;-74
2021/04/14 03:37:36;;;;;;;23.20;18.65;;;;;;;13.62;100.00;100705.16;5035035;28;20029;-74
2021/04/14 03:40:22;;;;;;;20.63;16.02;;;;;;;13.76;100.00;100709.16;5034633;28;20033;-75
2021/04/14 03:43:08;;;;;;;23.20;16.40;;;;;;;13.65;100.00;100716.50;5035334;28;20029;-75
2021/04/14 03:45:58;;;;;;;25.80;18.63;;;;;;;13.58;100.00;100704.41;5035204;28;20025;-75
2021/04/14 03:48:44;;;;;;;26.42;19.25;;;;;;;13.85;100.00;100707.97;5034768;28;20037;-76
2021/04/14 03:51:31;;;;;;;24.80;17.95;;;;;;;13.60;100.00;100704.38;5035708;28;20025;-76
2021/04/14 03:54:17;;;;;;;28.67;18.83;;;;;;;13.68;100.00;100703.25;5035201;28;20065;-75
2021/04/14 03:57:03;;;;;;;25.77;18.58;;;;;;;13.75;100.00;100699.50;5034843;28;20087;-74
2021/04/14 03:59:49;;;;;;;26.00;19.65;;;;;;;13.38;100.00;100696.25;5035526;28;20034;-75
2021/04/14 04:02:35;;;;;;;27.05;19.33;;;;;;;13.47;100.00;100703.88;5034583;28;20442;-75
2021/04/14 04:05:21;;;;;;;27.30;19.92;;;;;;;13.94;100.00;100700.66;5020909;28;20072;-75
2021/04/14 04:08:07;;;;;;;31.70;22.70;;;;;;;13.65;100.00;100695.44;5034113;28;20057;-75
2021/04/14 04:10:52;;;;;;;28.23;22.08;;;;;;;13.43;100.00;100702.22;5034553;28;20026;-75
2021/04/14 04:13:38;;;;;;;31.52;23.42;;;;;;;13.72;100.00;100707.50;5019626;28;20029;-75
2021/04/14 04:16:24;;;;;;;34.85;23.95;;;;;;;13.57;100.00;100705.34;5021555;28;20065;-75
2021/04/14 04:19:10;;;;;;;30.30;22.15;;;;;;;13.42;100.00;100711.03;5021406;28;20428;-75
2021/04/14 04:21:56;;;;;;;26.05;18.33;;;;;;;13.04;100.00;100713.91;5033417;28;20026;-75
2021/04/14 04:24:42;;;;;;;26.55;17.55;;;;;;;12.71;100.00;100720.03;5021207;28;20083;-74
2021/04/14 04:27:27;;;;;;;23.50;17.38;;;;;;;12.79;100.00;100730.34;5034351;28;20053;-75
2021/04/14 04:30:14;;;;;;;27.38;18.98;;;;;;;13.54;100.00;100721.22;5020570;28;20033;-75
2021/04/14 04:33:00;;;;;;;25.33;19.35;;;;;;;13.88;100.00;100715.78;5034177;28;20025;-77
2021/04/14 04:35:46;;;;;;;28.58;20.10;;;;;;;13.86;100.00;100723.75;5034825;28;20043;-75
2021/04/14 04:38:34;;;;;;;27.52;19.83;;;;;;;13.77;100.00;100717.88;5033649;28;20065;-76
2021/04/14 04:41:19;;;;;;;25.42;18.73;;;;;;;13.40;100.00;100726.03;5021922;28;20438;-75
2021/04/14 04:44:05;;;;;;;27.35;19.50;;;;;;;13.34;100.00;100733.22;5033675;28;20026;-75
2021/04/14 04:46:51;;;;;;;28.70;19.92;;;;;;;13.54;100.00;100734.38;5033547;28;20116;-75
2021/04/14 04:49:37;;;;;;;25.00;17.13;;;;;;;13.25;100.00;100739.59;5034319;28;20021;-74
2021/04/14 04:52:22;;;;;;;28.27;19.92;;;;;;;13.43;100.00;100738.22;5034942;28;20034;-74
2021/04/14 04:55:10;;;;;;;29.20;20.02;;;;;;;13.62;100.00;100729.75;5033487;28;20095;-75
2021/04/14 04:57:56;;;;;;;23.75;18.92;;;;;;;13.41;100.00;100734.75;5033789;28;20099;-75
2021/04/14 05:00:43;;;;;;;22.83;17.50;;;;;;;13.12;100.00;100738.22;5033648;28;20072;-75
2021/04/14 05:03:29;;;;;;;27.83;18.85;;;;;;;13.33;100.00;100737.63;5017657;28;20481;-75
2021/04/14 05:06:15;;;;;;;25.27;18.55;;;;;;;13.44;100.00;100737.31;5033781;28;20183;-75
2021/04/14 05:09:01;;;;;;;27.48;19.27;;;;;;;13.42;100.00;100732.09;5033598;28;20060;-76
2021/04/14 05:11:47;;;;;;;30.65;21.27;;;;;;;13.59;100.00;100735.09;5033943;28;20057;-75
2021/04/14 05:14:33;;;;;;;28.00;20.58;;;;;;;13.36;100.00;100731.41;5033438;28;20017;-75
2021/04/14 05:17:18;;;;;;;27.70;20.10;;;;;;;13.37;100.00;100731.38;5033397;28;20442;-75
2021/04/14 05:20:05;;;;;;;28.85;19.60;;;;;;;13.64;100.00;100727.94;5033298;28;20449;-75
2021/04/14 05:22:51;;;;;;;26.70;18.88;;;;;;;13.48;100.00;100729.31;5020255;28;20033;-75
2021/04/14 05:25:40;;;;;;;24.90;19.13;;;;;;;13.72;100.00;100725.94;5032743;28;20451;-76
2021/04/14 05:28:27;;;;;;;22.70;18.05;;;;;;;13.87;100.00;100730.72;5033393;28;20072;-76
2021/04/14 05:31:13;;;;;;;22.73;16.73;;;;;;;12.94;100.00;100729.94;5033236;28;20108;-75
2021/04/14 05:33:59;;;;;;;22.08;16.02;;;;;;;13.11;100.00;100731.22;5033496;28;20021;-75
2021/04/14 05:36:45;;;;;;;26.75;18.38;;;;;;;13.54;100.00;100731.72;5034153;28;20041;-74
2021/04/14 05:39:31;;;;;;;25.67;18.42;;;;;;;13.72;100.00;100725.94;5019415;28;20442;-75
2021/04/14 05:42:17;;;;;;;24.80;17.33;;;;;;;13.57;100.00;100728.16;5019252;28;20171;-74
2021/04/14 05:45:03;;;;;;;22.38;17.65;;;;;;;13.51;100.00;100734.44;5018666;28;20049;-75
2021/04/14 05:47:49;;;;;;;24.00;18.20;;;;;;;13.26;100.00;100740.47;5034078;28;20023;-75
2021/04/14 05:50:35;;;;;;;23.50;18.63;;;;;;;12.81;100.00;100747.78;5019216;28;20029;-75
2021/04/14 05:53:21;;;;;;;25.27;18.77;;;;;;;13.12;100.00;100748.75;5020220;28;20108;-73
2021/04/14 05:56:09;;;;;;;25.10;17.67;;;;;;;13.17;100.00;100752.09;5033054;28;20021;-74
2021/04/14 05:58:56;;;;;;;26.95;18.73;;;;;;;13.16;100.00;100746.88;5033471;28;20061;-75
2021/04/14 06:01:43;;;;;;;24.27;18.27;;;;;;;13.14;100.00;100752.19;5032494;28;20488;-73
2021/04/14 06:04:29;;;;;;;28.88;20.92;;;;;;;12.57;100.00;100758.06;5021112;28;20029;-73
2021/04/14 06:07:15;;;;;;;31.08;22.00;;;;;;;11.94;100.00;100770.94;5033615;28;20057;-73
2021/04/14 06:10:01;;;;;;;24.80;19.60;;;;;;;11.91;100.00;100776.28;5034134;28;20151;-73
2021/04/14 06:12:48;;;;;;;17.85;13.82;;;;;;;11.46;100.00;100777.22;5037483;28;20052;-75
2021/04/14 06:15:34;;;;;;;14.38;9.43;;;;;;;11.53;100.00;100785.81;5036774;28;20361;-76
2021/04/14 06:18:21;;;;;;;10.48;8.07;;;;;;;11.33;100.00;100786.19;5023334;28;20116;-74
2021/04/14 06:21:07;;;;;;;10.30;8.60;;;;;;;11.55;100.00;100791.91;5022165;28;20031;-74
2021/04/14 06:23:53;;;;;;;12.80;9.30;;;;;;;11.29;100.00;100795.03;5021811;28;20029;-76
2021/04/14 06:29:25;;;;;;;12.68;9.82;;;;;;;11.06;100.00;100805.09;5036426;28;20362;-75
2021/04/14 06:32:11;;;;;;;13.15;8.45;;;;;;;11.23;100.00;100810.91;5036800;28;20065;-75
2021/04/14 06:34:57;;;;;;;10.50;9.25;;;;;;;11.46;100.00;100813.94;5023495;28;20044;-74
2021/04/14 06:37:43;;;;;;;8.90;7.80;;;;;;;11.01;100.00;100812.16;5036105;28;20048;-72
2021/04/14 06:43:48;;;;;;;8.35;7.53;;;;;;;11.01;100.00;100820.03;5037252;28;20033;-73
2021/04/14 06:46:35;;;;;;;8.23;7.43;;;;;;;11.11;100.00;100829.47;5037375;28;20373;-74
2021/04/14 06:49:41;;;;;;;8.63;7.72;;;;;;;10.64;100.00;100829.41;5036938;28;20090;-74
2021/04/14 06:52:56;;;;;;;11.68;8.05;;;;;;;10.70;100.00;100831.94;5037016;28;20461;-72
2021/04/14 06:55:47;;;;;;;9.82;8.52;;;;;;;10.46;100.00;100845.41;4976182;28;20044;-71
2021/04/14 06:58:43;;;;;;;10.18;8.55;;;;;;;10.60;100.00;100842.59;5037113;28;20339;-74
2021/04/14 07:01:37;;;;;;;12.25;10.05;;;;;;;10.90;100.00;100842.94;5009695;28;20427;-74
2021/04/14 07:04:31;;;;;;;13.93;10.20;;;;;;;10.63;100.00;100848.63;5037082;28;20501;-78
2021/04/14 07:07:28;;;;;;;11.77;10.32;;;;;;;10.62;100.00;100862.63;5022424;28;20046;-74
2021/04/14 07:10:19;;;;;;;11.20;10.02;;;;;;;10.55;100.00;100874.09;5022546;28;20017;-74
2021/04/14 07:13:12;;;;;;;13.18;11.00;;;;;;;10.64;100.00;100862.63;5036686;28;20041;-74
2021/04/14 07:16:24;;;;;;;12.23;10.93;;;;;;;10.44;100.00;100883.00;5022981;28;20171;-73
2021/04/14 07:19:28;;;;;;;9.77;8.77;;;;;;;10.40;100.00;100876.91;5035737;28;20069;-74
2021/04/14 07:22:25;;;;;;;10.10;9.02;;;;;;;10.39;100.00;100879.56;5034104;28;20455;-74
2021/04/14 07:25:27;;;;;;;9.23;6.82;;;;;;;9.96;100.00;100879.22;5036162;28;20099;-75
2021/04/14 07:29:00;;;;;;;7.88;6.90;;;;;;;10.19;100.00;100877.22;5036889;28;20017;-74
2021/04/14 07:31:57;;;;;;;7.00;6.30;;;;;;;10.06;100.00;100894.81;4986976;28;20033;-73
2021/04/14 07:35:10;;;;;;;7.25;6.55;;;;;;;9.66;100.00;100890.06;5022516;28;20496;-74
2021/04/14 07:38:14;;;;;;;7.38;6.40;;;;;;;9.86;100.00;100903.78;5022402;28;20052;-73
2021/04/14 07:41:12;;;;;;;10.50;7.28;;;;;;;9.48;100.00;100903.31;5035321;28;20040;-74
2021/04/14 07:44:05;;;;;;;13.93;10.43;;;;;;;10.13;100.00;100900.88;5020822;28;20112;-74
2021/04/14 07:46:51;;;;;;;6.97;6.28;;;;;;;9.68;100.00;100903.97;5022007;28;20025;-74
2021/04/14 07:49:37;;;;;;;6.82;6.10;;;;;;;9.42;100.00;100921.69;5035478;28;20461;-75
2021/04/14 07:52:26;;;;;;;8.45;5.63;;;;;;;9.76;100.00;100916.09;5035905;28;20029;-75
2021/04/14 07:55:31;;;;;;;7.45;6.05;;;;;;;9.71;100.00;100924.88;5021058;28;20104;-74
2021/04/14 07:58:24;;;;;;;12.43;7.22;;;;;;;9.57;100.00;100917.16;5021412;28;20429;-72
2021/04/14 08:01:22;;;;;;;9.90;8.10;;;;;;;9.88;100.00;100933.41;5033958;28;20107;-73
2021/04/14 08:04:42;;;;;;;13.05;11.60;;;;;;;9.80;100.00;100927.38;5022170;28;20083;-74
2021/04/14 08:07:37;;;;;;;11.93;10.73;;;;;;;9.89;100.00;100932.53;5003726;28;20045;-74
2021/04/14 08:10:25;;;;;;;10.60;9.38;;;;;;;10.01;100.00;100948.09;5022805;28;20358;-73
2021/04/14 08:13:24;;;;;;;9.48;8.57;;;;;;;10.01;100.00;100937.63;5033327;28;20021;-73
2021/04/14 08:16:41;;;;;;;9.30;8.27;;;;;;;9.87;100.00;100956.13;5037751;28;20025;-74
2021/04/14 08:19:35;;;;;;;12.32;9.02;;;;;;;9.73;100.00;100941.44;5034913;28;20458;-73
2021/04/14 08:22:24;;;;;;;8.32;7.45;;;;;;;9.77;100.00;100940.53;5007935;28;20044;-73
2021/04/14 08:25:11;;;;;;;6.03;5.15;;;;;;;9.49;100.00;100941.69;5034698;28;20493;-75
2021/04/14 08:27:58;;;;;;;7.45;5.72;;;;;;;9.44;100.00;100946.06;5036176;28;20382;-75
2021/04/14 08:30:44;;;;;;;7.93;6.97;;;;;;;9.70;100.00;100952.78;5035148;28;20044;-75
2021/04/14 08:33:30;;;;;;;5.38;4.80;;;;;;;9.71;100.00;100969.34;5020177;28;20112;-73
2021/04/14 08:36:19;;;;;;;7.07;5.65;;;;;;;9.54;100.00;100961.69;5035334;28;20036;-74
2021/04/14 08:39:10;;;;;;;9.82;7.38;;;;;;;9.63;100.00;100971.19;5032975;28;20048;-74
2021/04/14 08:42:11;;;;;;;11.25;9.10;;;;;;;9.58;100.00;100970.38;5035306;28;20041;-74
2021/04/14 08:45:22;;;;;;;8.57;6.43;;;;;;;9.16;100.00;100971.59;5034833;28;20039;-73
2021/04/14 08:48:31;;;;;;;8.80;5.93;;;;;;;9.40;100.00;100966.16;5035333;28;20037;-73
2021/04/14 08:51:18;;;;;;;11.88;7.43;;;;;;;9.16;100.00;100966.38;5034476;28;20425;-73
2021/04/14 08:54:05;;;;;;;7.30;6.35;;;;;;;9.07;100.00;100970.78;5033772;28;20056;-73
2021/04/14 08:56:53;;;;;;;7.25;6.10;;;;;;;9.33;100.00;100966.25;5032720;28;20025;-72
2021/04/14 08:59:40;;;;;;;8.20;7.15;;;;;;;9.47;100.00;100964.34;5034994;28;20053;-74
2021/04/14 09:02:26;;;;;;;8.30;7.03;;;;;;;9.33;100.00;100956.63;5034182;28;20025;-73
2021/04/14 09:05:25;;;;;;;8.57;7.15;;;;;;;9.46;100.00;100960.91;5034556;28;20053;-73
2021/04/14 09:08:17;;;;;;;9.60;7.55;;;;;;;9.34;100.00;100965.34;5034489;28;20076;-74
2021/04/14 09:11:06;;;;;;;8.57;7.35;;;;;;;9.60;100.00;100958.13;5021123;28;20040;-74
2021/04/14 09:14:02;;;;;;;7.75;6.80;;;;;;;9.66;100.00;100953.69;5032058;28;20021;-74
2021/04/14 09:16:54;;;;;;;8.25;7.03;;;;;;;9.71;100.00;100959.78;5034016;28;20052;-74
2021/04/14 09:19:43;;;;;;;7.90;6.82;;;;;;;9.77;100.00;100957.06;5034171;28;20450;-74
2021/04/14 09:22:33;;;;;;;8.02;5.88;;;;;;;9.67;100.00;100955.44;5033619;28;20049;-75
2021/04/14 09:25:26;;;;;;;7.40;6.25;;;;;;;9.57;100.00;100955.56;5032532;28;20030;-73
2021/04/14 09:28:32;;;;;;;7.00;5.82;;;;;;;9.55;100.00;100966.03;5034793;28;20017;-73
2021/04/14 09:31:46;;;;;;;6.70;5.88;;;;;;;10.05;100.00;100965.53;5019129;28;20350;-73
2021/04/14 09:34:40;;;;;;;6.38;5.57;;;;;;;9.77;100.00;100966.69;5034320;28;20052;-73
2021/04/14 09:37:31;;;;;;;7.80;6.22;;;;;;;10.14;100.00;100961.03;5032704;28;20029;-72
2021/04/14 09:40:40;;;;;;;7.05;4.60;;;;;;;10.01;100.00;100975.13;5033035;28;20053;-73
2021/04/14 09:43:26;;;;;;;5.70;4.80;;;;;;;10.21;100.00;100959.25;5034065;28;20029;-74
2021/04/14 09:46:26;;;;;;;7.60;5.28;;;;;;;9.98;100.00;100961.22;5037634;28;20085;-73
2021/04/14 09:49:21;;;;;;;8.10;5.88;;;;;;;9.80;100.00;100950.94;5036890;28;20021;-74
2021/04/14 09:52:31;;;;;;;9.57;8.38;;;;;;;9.89;100.00;100948.25;5037057;28;20035;-73
2021/04/14 09:55:27;;;;;;;10.40;9.07;;;;;;;9.84;100.00;100955.25;5037861;28;20438;-73
2021/04/14 09:58:37;;;;;;;10.73;9.25;;;;;;;9.90;100.00;100944.75;5037890;28;20361;-73
2021/04/14 10:01:23;;;;;;;9.40;7.72;;;;;;;9.67;100.00;100951.97;5022638;28;20036;-74
2021/04/14 10:04:19;;;;;;;8.73;6.72;;;;;;;9.71;100.00;100944.06;5023533;28;20029;-74
2021/04/14 10:07:40;;;;;;;5.85;4.90;;;;;;;9.75;100.00;100953.63;5023556;28;20052;-75
2021/04/14 10:10:26;;;;;;;5.72;4.50;;;;;;;9.36;100.00;100953.13;5037450;28;20377;-72
2021/04/14 10:13:17;;;;;;;7.18;4.82;;;;;;;9.57;100.00;100950.31;5023797;28;20091;-73
2021/04/14 10:16:06;;;;;;;5.95;4.70;;;;;;;9.61;100.00;100957.25;5037637;28;20079;-73
2021/04/14 10:19:04;;;;;;;6.00;4.88;;;;;;;9.58;100.00;100954.66;5037515;28;20021;-73
2021/04/14 10:21:50;;;;;;;7.28;5.40;;;;;;;9.78;100.00;100953.56;5023394;28;20483;-73
2021/04/14 10:24:37;;;;;;;7.38;5.55;;;;;;;10.14;100.00;100947.94;5022550;28;20025;-73
2021/04/14 10:27:23;;;;;;;8.48;6.10;;;;;;;10.36;100.00;100942.47;5037268;28;20032;-72
2021/04/14 10:30:11;;;;;;;8.65;5.78;;;;;;;10.56;100.00;100950.94;5036174;28;20044;-74
2021/04/14 10:33:12;;;;;;;9.35;6.47;;;;;;;10.59;100.00;100954.38;5035760;28;20107;-75
2021/04/14 10:36:10;;;;;;;10.68;7.57;;;;;;;10.58;100.00;100950.03;5036233;28;20025;-74
2021/04/14 10:39:08;;;;;;;9.18;6.28;;;;;;;10.39;100.00;100939.78;5035478;28;20025;-74
2021/04/14 10:41:56;;;;;;;9.38;6.82;;;;;;;10.97;100.00;100943.31;5035612;28;20362;-74
2021/04/14 10:44:42;;;;;;;9.80;6.05;;;;;;;10.85;100.00;100939.13;5035658;28;20446;-73
2021/04/14 10:47:33;;;;;;;9.52;6.30;;;;;;;10.93;100.00;100941.66;5036406;28;20048;-73
2021/04/14 10:50:28;;;;;;;9.23;6.78;;;;;;;10.78;100.00;100940.13;5036523;28;20114;-73
2021/04/14 10:53:15;;;;;;;11.90;8.50;;;;;;;11.08;100.00;100931.78;5036557;28;20029;-73
2021/04/14 10:56:01;;;;;;;10.18;7.40;;;;;;;11.18;100.00;100946.47;5035705;28;20025;-74
2021/04/14 10:58:48;;;;;;;9.45;7.18;;;;;;;11.15;100.00;100940.41;5034906;28;20101;-73
2021/04/14 11:01:41;;;;;;;9.68;7.57;;;;;;;11.27;100.00;100938.47;5036661;28;20033;-72
2021/04/14 11:04:39;;;;;;;11.82;7.97;;;;;;;11.95;100.00;100939.84;5035744;28;20025;-73
2021/04/14 11:07:25;;;;;;;10.63;8.15;;;;;;;11.32;100.00;100935.72;5021980;28;20470;-72
2021/04/14 11:10:18;;;;;;;9.73;7.80;;;;;;;11.23;100.00;100934.16;5022832;28;20056;-73
2021/04/14 11:13:10;;;;;;;12.70;9.15;;;;;;;11.40;100.00;100934.72;5036380;28;20033;-73
2021/04/14 11:15:56;;;;;;;11.48;8.35;;;;;;;11.19;100.00;100926.34;5036329;28;20037;-74
2021/04/14 11:18:43;;;;;;;11.73;8.90;;;;;;;11.81;100.00;100926.16;5035601;28;20029;-73
2021/04/14 11:21:31;;;;;;;11.65;9.07;;;;;;;12.06;100.00;100930.00;5035424;28;20033;-73
2021/04/14 11:24:18;;;;;;;15.55;8.65;;;;;;;11.81;100.00;100924.38;5036697;28;20029;-74
2021/04/14 11:27:03;;;;;;;9.95;7.95;;;;;;;11.77;100.00;100929.72;5035992;28;20109;-74
2021/04/14 11:29:51;;;;;;;10.18;7.40;;;;;;;12.05;100.00;100923.03;5035743;28;20040;-75
2021/04/14 11:32:37;;;;;;;7.47;5.72;;;;;;;12.60;100.00;100916.56;5021716;28;20366;-75
2021/04/14 11:35:52;;;;;;;6.07;4.22;;;;;;;12.75;100.00;100910.97;5035591;28;20326;-76
2021/04/14 11:38:42;;;;;;;6.75;4.80;;;;;;;13.02;100.00;100915.59;5016936;28;20447;-75
2021/04/14 11:41:38;;;;;;;6.18;4.90;;;;;;;13.18;100.00;100905.56;5036181;28;20115;-76
2021/04/14 11:44:41;;;;;;;7.45;4.45;;;;;;;12.61;100.00;100914.78;5033718;28;20033;-74
2021/04/14 11:47:31;;;;;;;4.55;3.95;;;;;;;12.45;100.00;100909.03;5036080;28;20365;-75
2021/04/14 11:50:22;;;;;;;4.85;3.75;;;;;;;12.78;100.00;100903.00;5035375;28;20474;-75
2021/04/14 11:53:30;;;;;;;4.75;3.83;;;;;;;13.06;100.00;100913.75;5035788;28;20029;-75
2021/04/14 11:56:32;;;;;;;6.03;3.38;;;;;;;13.07;100.00;100905.81;5020926;28;20027;-75
2021/04/14 11:59:33;;;;;;;6.10;4.32;;;;;;;12.90;100.00;100889.56;5036086;28;20061;-75
2021/04/14 12:02:25;;;;;;;7.55;3.60;;;;;;;12.88;100.00;100880.84;5034211;28;20068;-75
2021/04/14 12:05:12;;;;;;;7.43;4.20;;;;;;;13.03;100.00;100891.00;5035765;28;20088;-75
2021/04/14 12:07:58;;;;;;;4.70;4.20;;;;;;;13.09;100.00;100887.38;5020799;28;20445;-74
2021/04/14 12:10:44;;;;;;;4.22;3.80;;;;;;;13.24;100.00;100892.25;5020941;28;20461;-75
2021/04/14 12:13:30;;;;;;;4.95;4.20;;;;;;;13.09;100.00;100895.25;5035033;28;20037;-74
2021/04/14 12:16:16;;;;;;;6.18;3.90;;;;;;;13.14;100.00;100882.88;5020187;28;20168;-75
2021/04/14 12:19:02;;;;;;;6.28;4.20;;;;;;;12.99;100.00;100891.97;5020849;28;20083;-75
2021/04/14 12:21:50;;;;;;;5.45;4.38;;;;;;;13.02;100.00;100893.69;5021140;28;20032;-76
2021/04/14 12:24:36;;;;;;;4.53;4.13;;;;;;;12.84;100.00;100886.22;5021394;28;20037;-75
2021/04/14 12:27:23;;;;;;;4.70;4.15;;;;;;;12.71;100.00;100883.03;5020954;28;20021;-75
2021/04/14 12:30:09;;;;;;;5.25;3.95;;;;;;;12.88;100.00;100880.84;5035558;28;20388;-76
2021/04/14 12:32:56;;;;;;;4.82;3.83;;;;;;;12.62;100.00;100872.69;5034169;28;20100;-75
2021/04/14 12:35:42;;;;;;;5.68;4.07;;;;;;;12.85;100.00;100880.91;5034495;28;20068;-75
2021/04/14 12:38:28;;;;;;;4.90;4.40;;;;;;;12.93;100.00;100870.19;5019523;28;20112;-75
2021/04/14 12:41:14;;;;;;;4.70;4.30;;;;;;;13.01;100.00;100877.03;5035361;28;20048;-76
2021/04/14 12:44:00;;;;;;;5.00;4.40;;;;;;;13.03;100.00;100879.63;5019272;28;20098;-74
2021/04/14 12:46:48;;;;;;;5.95;4.75;;;;;;;12.74;100.00;100863.69;5033791;28;20029;-75
2021/04/14 12:49:37;;;;;;;6.57;4.70;;;;;;;12.89;100.00;100872.06;5019913;28;20032;-75
2021/04/14 12:52:44;;;;;;;5.88;5.22;;;;;;;13.01;100.00;100871.78;5034861;28;20417;-74
2021/04/14 12:55:37;;;;;;;6.28;5.05;;;;;;;13.16;100.00;100865.28;5034288;28;20386;-76
2021/04/14 12:58:31;;;;;;;7.38;5.40;;;;;;;12.98;100.00;100860.50;5034460;28;20515;-75